Record high temperature 42.2°C Record low temperature -14.6°C Record high gust 76.2 km/h Record high average 96.8 km/h Record daily rain 55.3 mm Record low windchill -17.5°C Record high barometer 1046.0 hPa Record low barometer 969.0 hPa
Daily high pressure 1019.0 hPa Daily low pressure 1014.0 hPa Daily low windchill 12.0°C Daily high heat index 25.3°C Daily high gust speed 19.1 kmh W Daily high average speed 12.2 kmh S

This page is updated from recent data collected by a WMR200 weather station Use the Reload or Refresh facility on your browser to retrieve the latest data.

Status report of weather station: Bienvenue sur la Station Météo de Godarville



Weather report/warning/Metars

Alexandroupoli Airport , Greece (LGAL) 40-51N 025-55E 3M
Jul 14, 2020 - 10:50 AM EDT / 2020.07.14 1450 UTC
Wind: from the NE (050 degrees) at 15 MPH (13 KT):0
Visibility: greater than 7 mile(s):0
Sky conditions: mostly clear
Temperature: 82 F (28 C)
Dew Point: 48 F (9 C)
Relative Humidity: 30%
Pressure (altimeter): 29.88 in. Hg (1012 hPa)
ob: LGAL 141450Z 05013KT 9999 FEW035 28/09 Q1012
cycle: 15

Charleroi / Gosselies, Belgium (EBCI) 50-28N 004-27E 192M
Jul 14, 2020 - 10:50 AM EDT / 2020.07.14 1450 UTC
Wind: from the WSW (240 degrees) at 9 MPH (8 KT) (direction variable):0
Visibility: greater than 7 mile(s):0
Sky conditions: partly cloudy
Temperature: 66 F (19 C)
Dew Point: 59 F (15 C)
Relative Humidity: 77%
Pressure (altimeter): 29.97 in. Hg (1015 hPa)
ob: EBCI 141450Z 24008KT 210V270 9999 FEW012 SCT015 19/15 Q1015 TEMPO 4500 SHRA
cycle: 15

Bruxelles National, Belgium (EBBR) 50-54N 004-32E 58M
Jul 14, 2020 - 10:50 AM EDT / 2020.07.14 1450 UTC
Wind: from the SW (230 degrees) at 7 MPH (6 KT) (direction variable):0
Visibility: greater than 7 mile(s):0
Sky conditions: mostly cloudy
Temperature: 64 F (18 C)
Dew Point: 62 F (17 C)
Relative Humidity: 93%
Pressure (altimeter): 29.94 in. Hg (1014 hPa)
ob: EBBR 141450Z 23006KT 200V260 9999 FEW010 SCT013 BKN030 18/17 Q1014 TEMPO 4500 SHRA
cycle: 15

Koksijde, Belgium (EBFN) 51-05N 002-39E 9M
Jul 14, 2020 - 11:03 AM EDT / 2020.07.14 1503 UTC
Wind: from the N (360 degrees) at 8 MPH (7 KT):0
Visibility: greater than 7 mile(s):0
Sky conditions: mostly cloudy
Temperature: 62 F (17 C)
Dew Point: 59 F (15 C)
Relative Humidity: 88%
Pressure (altimeter): 29.97 in. Hg (1015 hPa)
ob: EBFN 141503Z AUTO 36007KT 9999 SCT010/// BKN049/// 17/15 Q1015 GRN
cycle: 15

Poznan, Poland (EPPO) 52-25N 016-50E 92M
Jul 14, 2020 - 11:00 AM EDT / 2020.07.14 1500 UTC
Wind: from the S (180 degrees) at 10 MPH (9 KT) (direction variable):0
Visibility: greater than 7 mile(s):0
Temperature: 77 F (25 C)
Dew Point: 44 F (7 C)
Relative Humidity: 31%
Pressure (altimeter): 29.94 in. Hg (1014 hPa)
ob: EPPO 141500Z 18009KT 100V200 CAVOK 25/07 Q1014 
cycle: 15



Coucher du Soleil:
21:50:24

Lever de Lune:
01:47:54 14/07/20

Coucher de Lune:
14:31:50 13/07/20

Premier Quartier 28 juin 2020
Pleine Lune 5 juillet 2020
Dernier Quartier 12 juillet 2020
Nouvelle Lune 20 juillet 2020
Âge de lune : 22 jours,23 heures,51 minutes,41%
Les heures du jour possible étaient aujourd’hui 16:04



The data is logged at two minute intervals, but there is data recorded every minute.

Use the RELOAD facility on your browser to retrieve the latest data.

Click here for a daily update of the averages/extremes to date for the month
Created by "Weather Display" software version 10.37P at this start time/date 11:46:47 24/06/2020